GLD1793 SBGR-SBNF
Flight info
| Callsign | GLD1793 |
|---|---|
| Flight time | 0h 47m |
| Altitude | 38000 |
| Route | ZORZ3A MADNI UZ92 PUBIS PUBI2C |
| Aircraft | B738/M-SDFGIRY/S |
Departure
| Time | 2026-04-24 21:46 |
|---|---|
| Airport | São Paulo/Guarulhos–Governor André Franco Montoro International Airport (SBGR) |
Arrival
| Time | 2026-04-24 22:34 |
|---|---|
| Airport | Ministro Victor Konder International Airport (SBNF) |
| Time | Latitude | Longitude | Altitude | Speed | Heading |
|---|---|---|---|---|---|
| 2026-04-24 21:29 | -23.42690 | -46.47270 | 2467 ft | 0 kts | 255° |
| 2026-04-24 21:35 | -23.42688 | -46.47262 | 2467 ft | 2 kts | 253° |
| 2026-04-24 21:36 | -23.42684 | -46.47245 | 2467 ft | 2 kts | 255° |
| 2026-04-24 21:36 | -23.42679 | -46.47228 | 2467 ft | 2 kts | 254° |
| 2026-04-24 21:36 | -23.42675 | -46.47211 | 2469 ft | 2 kts | 252° |
| 2026-04-24 21:36 | -23.42669 | -46.47194 | 2469 ft | 2 kts | 245° |
| 2026-04-24 21:37 | -23.42660 | -46.47179 | 2470 ft | 2 kts | 197° |
| 2026-04-24 21:37 | -23.42651 | -46.47179 | 2469 ft | 0 kts | 165° |
| 2026-04-24 21:37 | -23.42650 | -46.47179 | 2469 ft | 0 kts | 165° |
| 2026-04-24 21:39 | -23.42654 | -46.47178 | 2467 ft | 1 kts | 165° |
| 2026-04-24 21:39 | -23.42670 | -46.47173 | 2470 ft | 4 kts | 165° |
| 2026-04-24 21:39 | -23.42718 | -46.47158 | 2468 ft | 10 kts | 163° |
| 2026-04-24 21:39 | -23.42791 | -46.47135 | 2471 ft | 11 kts | 163° |
| 2026-04-24 21:40 | -23.42855 | -46.47156 | 2469 ft | 11 kts | 249° |
| 2026-04-24 21:40 | -23.42874 | -46.47236 | 2467 ft | 11 kts | 256° |
| 2026-04-24 21:40 | -23.42895 | -46.47310 | 2467 ft | 10 kts | 250° |
| 2026-04-24 21:40 | -23.42914 | -46.47383 | 2471 ft | 10 kts | 256° |
| 2026-04-24 21:41 | -23.42931 | -46.47454 | 2470 ft | 10 kts | 255° |
| 2026-04-24 21:41 | -23.42950 | -46.47524 | 2467 ft | 9 kts | 253° |
| 2026-04-24 21:41 | -23.42970 | -46.47596 | 2470 ft | 11 kts | 253° |
| 2026-04-24 21:41 | -23.42992 | -46.47677 | 2467 ft | 11 kts | 253° |
| 2026-04-24 21:42 | -23.43014 | -46.47759 | 2469 ft | 11 kts | 254° |
| 2026-04-24 21:42 | -23.43035 | -46.47838 | 2469 ft | 11 kts | 253° |
| 2026-04-24 21:42 | -23.43057 | -46.47915 | 2469 ft | 10 kts | 252° |
| 2026-04-24 21:42 | -23.43079 | -46.47991 | 2467 ft | 11 kts | 252° |
| 2026-04-24 21:43 | -23.43101 | -46.48070 | 2469 ft | 11 kts | 254° |
| 2026-04-24 21:43 | -23.43123 | -46.48153 | 2468 ft | 11 kts | 254° |
| 2026-04-24 21:43 | -23.43145 | -46.48234 | 2471 ft | 11 kts | 253° |
| 2026-04-24 21:43 | -23.43166 | -46.48314 | 2468 ft | 11 kts | 253° |
| 2026-04-24 21:44 | -23.43206 | -46.48380 | 2468 ft | 11 kts | 202° |
| 2026-04-24 21:44 | -23.43279 | -46.48372 | 2471 ft | 11 kts | 166° |
| 2026-04-24 21:44 | -23.43314 | -46.48362 | 2471 ft | 0 kts | 164° |
| 2026-04-24 21:45 | -23.43352 | -46.48347 | 2469 ft | 11 kts | 154° |
| 2026-04-24 21:45 | -23.43404 | -46.48253 | 2468 ft | 19 kts | 88° |
| 2026-04-24 21:45 | -23.43346 | -46.48025 | 2470 ft | 68 kts | 73° |
| 2026-04-24 21:45 | -23.43114 | -46.47172 | 2469 ft | 161 kts | 73° |
| 2026-04-24 21:46 | -23.42728 | -46.45792 | 2771 ft | 211 kts | 73° |
| 2026-04-24 21:46 | -23.42287 | -46.44288 | 3887 ft | 208 kts | 73° |
| 2026-04-24 21:46 | -23.42025 | -46.42708 | 4883 ft | 215 kts | 90° |
| 2026-04-24 21:46 | -23.42246 | -46.41112 | 5739 ft | 208 kts | 108° |
| 2026-04-24 21:47 | -23.42938 | -46.39672 | 6253 ft | 227 kts | 129° |
| 2026-04-24 21:47 | -23.43766 | -46.38889 | 6384 ft | 246 kts | 150° |
| 2026-04-24 21:47 | -23.46015 | -46.38079 | 6993 ft | 262 kts | 168° |
| 2026-04-24 21:47 | -23.47823 | -46.38158 | 7616 ft | 263 kts | 202° |
| 2026-04-24 21:48 | -23.49255 | -46.39327 | 8345 ft | 259 kts | 231° |
| 2026-04-24 21:48 | -23.50408 | -46.40842 | 9054 ft | 262 kts | 231° |
| 2026-04-24 21:48 | -23.51651 | -46.42375 | 9526 ft | 279 kts | 229° |
| 2026-04-24 21:48 | -23.53025 | -46.43951 | 10123 ft | 292 kts | 226° |
| 2026-04-24 21:49 | -23.54501 | -46.45545 | 10636 ft | 313 kts | 225° |
| 2026-04-24 21:49 | -23.56154 | -46.47260 | 10835 ft | 341 kts | 224° |
| 2026-04-24 21:49 | -23.57955 | -46.49096 | 11017 ft | 365 kts | 224° |
| 2026-04-24 21:49 | -23.59688 | -46.51161 | 11544 ft | 374 kts | 236° |
| 2026-04-24 21:50 | -23.60883 | -46.53644 | 12263 ft | 376 kts | 250° |
| 2026-04-24 21:50 | -23.61522 | -46.56442 | 13053 ft | 377 kts | 262° |
| 2026-04-24 21:50 | -23.61888 | -46.59243 | 13777 ft | 380 kts | 262° |
| 2026-04-24 21:50 | -23.62270 | -46.62099 | 14412 ft | 383 kts | 262° |
| 2026-04-24 21:51 | -23.62874 | -46.64933 | 14995 ft | 388 kts | 252° |
| 2026-04-24 21:51 | -23.63974 | -46.67647 | 15578 ft | 393 kts | 243° |
| 2026-04-24 21:51 | -23.65398 | -46.70211 | 16159 ft | 397 kts | 239° |
| 2026-04-24 21:51 | -23.66922 | -46.72749 | 16712 ft | 401 kts | 238° |
| 2026-04-24 21:52 | -23.68453 | -46.75311 | 17243 ft | 405 kts | 238° |
| 2026-04-24 21:52 | -23.70229 | -46.77710 | 17737 ft | 412 kts | 224° |
| 2026-04-24 21:52 | -23.72596 | -46.79518 | 18252 ft | 419 kts | 210° |
| 2026-04-24 21:52 | -23.75359 | -46.80615 | 18705 ft | 427 kts | 195° |
| 2026-04-24 21:53 | -23.78270 | -46.81306 | 19161 ft | 429 kts | 194° |
| 2026-04-24 21:53 | -23.81208 | -46.81961 | 19618 ft | 431 kts | 194° |
| 2026-04-24 21:53 | -23.84155 | -46.82614 | 20059 ft | 433 kts | 194° |
| 2026-04-24 21:53 | -23.87096 | -46.83278 | 20494 ft | 435 kts | 194° |
| 2026-04-24 21:54 | -23.90085 | -46.83967 | 20924 ft | 437 kts | 195° |
| 2026-04-24 21:54 | -23.93064 | -46.84666 | 21342 ft | 439 kts | 195° |
| 2026-04-24 21:54 | -23.96057 | -46.85376 | 21751 ft | 442 kts | 195° |
| 2026-04-24 21:54 | -23.99075 | -46.86097 | 22154 ft | 444 kts | 195° |
| 2026-04-24 21:55 | -24.02064 | -46.86812 | 22543 ft | 446 kts | 195° |
| 2026-04-24 21:55 | -24.05141 | -46.87549 | 22935 ft | 448 kts | 195° |
| 2026-04-24 21:55 | -24.08143 | -46.88268 | 23310 ft | 450 kts | 195° |
| 2026-04-24 21:55 | -24.11228 | -46.89007 | 23674 ft | 452 kts | 195° |
| 2026-04-24 21:56 | -24.14299 | -46.89743 | 23980 ft | 453 kts | 196° |
| 2026-04-24 21:56 | -24.17388 | -46.90483 | 24297 ft | 454 kts | 196° |
| 2026-04-24 21:56 | -24.20483 | -46.91225 | 24596 ft | 456 kts | 196° |
| 2026-04-24 21:56 | -24.23598 | -46.91972 | 24875 ft | 458 kts | 196° |
| 2026-04-24 21:57 | -24.26712 | -46.92719 | 25152 ft | 459 kts | 196° |
| 2026-04-24 21:57 | -24.29837 | -46.93469 | 25431 ft | 461 kts | 196° |
| 2026-04-24 21:57 | -24.32974 | -46.94223 | 25698 ft | 462 kts | 196° |
| 2026-04-24 21:57 | -24.36129 | -46.94981 | 25962 ft | 463 kts | 196° |
| 2026-04-24 21:58 | -24.39281 | -46.95739 | 26240 ft | 465 kts | 196° |
| 2026-04-24 21:58 | -24.42434 | -46.96497 | 26535 ft | 465 kts | 196° |
| 2026-04-24 21:58 | -24.45576 | -46.97254 | 26789 ft | 466 kts | 196° |
| 2026-04-24 21:58 | -24.48760 | -46.98021 | 27011 ft | 468 kts | 196° |
| 2026-04-24 21:59 | -24.51933 | -46.98785 | 27244 ft | 469 kts | 196° |
| 2026-04-24 21:59 | -24.55133 | -46.99557 | 27474 ft | 471 kts | 196° |
| 2026-04-24 21:59 | -24.58320 | -47.00366 | 27690 ft | 470 kts | 200° |
| 2026-04-24 21:59 | -24.61388 | -47.01575 | 27904 ft | 467 kts | 207° |
| 2026-04-24 22:00 | -24.64255 | -47.03256 | 28131 ft | 463 kts | 216° |
| 2026-04-24 22:00 | -24.66951 | -47.05189 | 28405 ft | 462 kts | 217° |
| 2026-04-24 22:00 | -24.69623 | -47.07131 | 28675 ft | 461 kts | 217° |
| 2026-04-24 22:00 | -24.72298 | -47.09072 | 28992 ft | 459 kts | 217° |
| 2026-04-24 22:01 | -24.74932 | -47.10971 | 29296 ft | 458 kts | 217° |
| 2026-04-24 22:01 | -24.77631 | -47.12904 | 29613 ft | 457 kts | 216° |
| 2026-04-24 22:01 | -24.80265 | -47.14783 | 30108 ft | 451 kts | 216° |
| 2026-04-24 22:01 | -24.82865 | -47.16629 | 30865 ft | 439 kts | 216° |
| 2026-04-24 22:02 | -24.85416 | -47.18441 | 31410 ft | 435 kts | 217° |
| 2026-04-24 22:02 | -24.87965 | -47.20256 | 31751 ft | 435 kts | 217° |
| 2026-04-24 22:02 | -24.90504 | -47.22066 | 32017 ft | 436 kts | 217° |
| 2026-04-24 22:02 | -24.93066 | -47.23894 | 32214 ft | 440 kts | 217° |
| 2026-04-24 22:03 | -24.95610 | -47.25710 | 32442 ft | 442 kts | 217° |
| 2026-04-24 22:03 | -24.98191 | -47.27551 | 32778 ft | 441 kts | 217° |
| 2026-04-24 22:03 | -25.00768 | -47.29389 | 33184 ft | 439 kts | 217° |
| 2026-04-24 22:03 | -25.03320 | -47.31211 | 33590 ft | 437 kts | 217° |
| 2026-04-24 22:04 | -25.05865 | -47.33028 | 33984 ft | 435 kts | 217° |
| 2026-04-24 22:04 | -25.08414 | -47.34851 | 34308 ft | 435 kts | 217° |
| 2026-04-24 22:04 | -25.10943 | -47.36660 | 34640 ft | 433 kts | 217° |
| 2026-04-24 22:04 | -25.13467 | -47.38466 | 34984 ft | 431 kts | 217° |
| 2026-04-24 22:05 | -25.15986 | -47.40270 | 35323 ft | 430 kts | 218° |
| 2026-04-24 22:05 | -25.18500 | -47.42071 | 35639 ft | 429 kts | 218° |
| 2026-04-24 22:05 | -25.21001 | -47.43864 | 35963 ft | 428 kts | 218° |
| 2026-04-24 22:06 | -25.25143 | -47.46829 | 36053 ft | 422 kts | 218° |
| 2026-04-24 22:06 | -25.30781 | -47.50852 | 36041 ft | 411 kts | 218° |
| 2026-04-24 22:07 | -25.35577 | -47.54287 | 36056 ft | 411 kts | 218° |
| 2026-04-24 22:07 | -25.39600 | -47.57168 | 36054 ft | 411 kts | 218° |
| 2026-04-24 22:08 | -25.44410 | -47.60623 | 36052 ft | 412 kts | 218° |
| 2026-04-24 22:08 | -25.49219 | -47.64089 | 36043 ft | 412 kts | 218° |
| 2026-04-24 22:09 | -25.54002 | -47.67540 | 36045 ft | 413 kts | 218° |
| 2026-04-24 22:09 | -25.58818 | -47.71018 | 36039 ft | 413 kts | 218° |
| 2026-04-24 22:09 | -25.61244 | -47.72772 | 35508 ft | 419 kts | 218° |
| 2026-04-24 22:10 | -25.63688 | -47.74540 | 34878 ft | 418 kts | 218° |
| 2026-04-24 22:10 | -25.66127 | -47.76303 | 34219 ft | 418 kts | 219° |
| 2026-04-24 22:10 | -25.68571 | -47.78071 | 33421 ft | 420 kts | 219° |
| 2026-04-24 22:10 | -25.70990 | -47.79823 | 32785 ft | 419 kts | 218° |
| 2026-04-24 22:11 | -25.73429 | -47.81587 | 32270 ft | 414 kts | 218° |
| 2026-04-24 22:11 | -25.75831 | -47.83326 | 31751 ft | 411 kts | 218° |
| 2026-04-24 22:11 | -25.78215 | -47.85053 | 31243 ft | 407 kts | 218° |
| 2026-04-24 22:11 | -25.80572 | -47.86762 | 30738 ft | 404 kts | 218° |
| 2026-04-24 22:12 | -25.82911 | -47.88460 | 30232 ft | 401 kts | 218° |
| 2026-04-24 22:12 | -25.85240 | -47.90151 | 29657 ft | 398 kts | 218° |
| 2026-04-24 22:12 | -25.87525 | -47.91811 | 29134 ft | 394 kts | 218° |
| 2026-04-24 22:12 | -25.89804 | -47.93468 | 28608 ft | 390 kts | 218° |
| 2026-04-24 22:13 | -25.92058 | -47.95107 | 28088 ft | 386 kts | 218° |
| 2026-04-24 22:13 | -25.94299 | -47.96738 | 27584 ft | 382 kts | 218° |
| 2026-04-24 22:13 | -25.96507 | -47.98347 | 27094 ft | 379 kts | 218° |
| 2026-04-24 22:13 | -25.98708 | -47.99950 | 26607 ft | 376 kts | 218° |
| 2026-04-24 22:14 | -26.00899 | -48.01546 | 26118 ft | 374 kts | 218° |
| 2026-04-24 22:14 | -26.03061 | -48.03127 | 25617 ft | 372 kts | 219° |
| 2026-04-24 22:14 | -26.05075 | -48.04917 | 24936 ft | 370 kts | 227° |
| 2026-04-24 22:14 | -26.06937 | -48.06918 | 24262 ft | 373 kts | 229° |
| 2026-04-24 22:15 | -26.08761 | -48.08959 | 23725 ft | 373 kts | 229° |
| 2026-04-24 22:15 | -26.10602 | -48.11000 | 23150 ft | 371 kts | 229° |
| 2026-04-24 22:15 | -26.12449 | -48.13006 | 22634 ft | 368 kts | 228° |
| 2026-04-24 22:15 | -26.14281 | -48.14965 | 22139 ft | 365 kts | 227° |
| 2026-04-24 22:16 | -26.16087 | -48.16886 | 21669 ft | 362 kts | 227° |
| 2026-04-24 22:16 | -26.17924 | -48.18828 | 21187 ft | 359 kts | 225° |
| 2026-04-24 22:16 | -26.19901 | -48.20501 | 20578 ft | 364 kts | 217° |
| 2026-04-24 22:16 | -26.22071 | -48.22015 | 20065 ft | 364 kts | 215° |
| 2026-04-24 22:17 | -26.24210 | -48.23447 | 19603 ft | 362 kts | 215° |
| 2026-04-24 22:17 | -26.26372 | -48.24894 | 19116 ft | 360 kts | 215° |
| 2026-04-24 22:17 | -26.28509 | -48.26341 | 18653 ft | 359 kts | 216° |
| 2026-04-24 22:17 | -26.30637 | -48.27798 | 18159 ft | 357 kts | 216° |
| 2026-04-24 22:18 | -26.32741 | -48.29253 | 17674 ft | 355 kts | 216° |
| 2026-04-24 22:18 | -26.34833 | -48.30707 | 17200 ft | 352 kts | 216° |
| 2026-04-24 22:18 | -26.36896 | -48.32146 | 16742 ft | 349 kts | 216° |
| 2026-04-24 22:18 | -26.38944 | -48.33578 | 16302 ft | 346 kts | 216° |
| 2026-04-24 22:19 | -26.40975 | -48.35000 | 15866 ft | 343 kts | 215° |
| 2026-04-24 22:19 | -26.42959 | -48.36390 | 15420 ft | 340 kts | 215° |
| 2026-04-24 22:19 | -26.44956 | -48.37790 | 14993 ft | 337 kts | 215° |
| 2026-04-24 22:19 | -26.46942 | -48.39182 | 14569 ft | 335 kts | 215° |
| 2026-04-24 22:20 | -26.48916 | -48.40567 | 14129 ft | 333 kts | 215° |
| 2026-04-24 22:20 | -26.50875 | -48.41942 | 13677 ft | 331 kts | 215° |
| 2026-04-24 22:20 | -26.52815 | -48.43304 | 13215 ft | 329 kts | 215° |
| 2026-04-24 22:20 | -26.54749 | -48.44662 | 12763 ft | 326 kts | 215° |
| 2026-04-24 22:21 | -26.56659 | -48.46004 | 12329 ft | 323 kts | 215° |
| 2026-04-24 22:21 | -26.58557 | -48.47338 | 11905 ft | 321 kts | 214° |
| 2026-04-24 22:21 | -26.60417 | -48.48646 | 11500 ft | 319 kts | 214° |
| 2026-04-24 22:21 | -26.62294 | -48.49968 | 11074 ft | 317 kts | 214° |
| 2026-04-24 22:22 | -26.64158 | -48.51279 | 10658 ft | 315 kts | 214° |
| 2026-04-24 22:22 | -26.65985 | -48.52564 | 10471 ft | 306 kts | 214° |
| 2026-04-24 22:22 | -26.67762 | -48.53814 | 10322 ft | 296 kts | 214° |
| 2026-04-24 22:22 | -26.69460 | -48.55040 | 10183 ft | 285 kts | 220° |
| 2026-04-24 22:23 | -26.70730 | -48.56656 | 10050 ft | 272 kts | 238° |
| 2026-04-24 22:23 | -26.71789 | -48.58412 | 9733 ft | 271 kts | 238° |
| 2026-04-24 22:23 | -26.72837 | -48.60155 | 9411 ft | 269 kts | 238° |
| 2026-04-24 22:23 | -26.73883 | -48.61887 | 9116 ft | 267 kts | 238° |
| 2026-04-24 22:24 | -26.74925 | -48.63608 | 8810 ft | 265 kts | 238° |
| 2026-04-24 22:24 | -26.75957 | -48.65307 | 8521 ft | 264 kts | 238° |
| 2026-04-24 22:24 | -26.76987 | -48.66999 | 8220 ft | 262 kts | 238° |
| 2026-04-24 22:24 | -26.78010 | -48.68677 | 7918 ft | 261 kts | 238° |
| 2026-04-24 22:25 | -26.79030 | -48.70352 | 7614 ft | 260 kts | 238° |
| 2026-04-24 22:25 | -26.80048 | -48.72022 | 7318 ft | 259 kts | 238° |
| 2026-04-24 22:25 | -26.81055 | -48.73675 | 7017 ft | 258 kts | 238° |
| 2026-04-24 22:25 | -26.82062 | -48.75328 | 6658 ft | 258 kts | 238° |
| 2026-04-24 22:26 | -26.83065 | -48.76976 | 6277 ft | 253 kts | 238° |
| 2026-04-24 22:26 | -26.84058 | -48.78607 | 5903 ft | 253 kts | 238° |
| 2026-04-24 22:26 | -26.85040 | -48.80222 | 5522 ft | 248 kts | 238° |
| 2026-04-24 22:26 | -26.86004 | -48.81806 | 5160 ft | 243 kts | 238° |
| 2026-04-24 22:27 | -26.86948 | -48.83357 | 4807 ft | 239 kts | 238° |
| 2026-04-24 22:27 | -26.87883 | -48.84878 | 4466 ft | 235 kts | 234° |
| 2026-04-24 22:27 | -26.89168 | -48.85979 | 4103 ft | 237 kts | 200° |
| 2026-04-24 22:27 | -26.90774 | -48.86123 | 3878 ft | 232 kts | 170° |
| 2026-04-24 22:28 | -26.92267 | -48.85454 | 3680 ft | 228 kts | 148° |
| 2026-04-24 22:28 | -26.93537 | -48.84503 | 3462 ft | 216 kts | 145° |
| 2026-04-24 22:28 | -26.94752 | -48.83567 | 3233 ft | 206 kts | 144° |
| 2026-04-24 22:28 | -26.95902 | -48.82682 | 3043 ft | 194 kts | 143° |
| 2026-04-24 22:29 | -26.96898 | -48.80298 | 2700 ft | 167 kts | 78° |
| 2026-04-24 22:29 | -26.96448 | -48.79129 | 2545 ft | 161 kts | 53° |
| 2026-04-24 22:29 | -26.95855 | -48.78108 | 2397 ft | 154 kts | 54° |
| 2026-04-24 22:30 | -26.95282 | -48.77142 | 2256 ft | 143 kts | 53° |
| 2026-04-24 22:30 | -26.94732 | -48.76237 | 2120 ft | 140 kts | 53° |
| 2026-04-24 22:30 | -26.94195 | -48.75354 | 2016 ft | 133 kts | 52° |
| 2026-04-24 22:30 | -26.93684 | -48.74517 | 1897 ft | 128 kts | 53° |
| 2026-04-24 22:31 | -26.93175 | -48.73683 | 1736 ft | 131 kts | 53° |
| 2026-04-24 22:31 | -26.92666 | -48.72848 | 1568 ft | 129 kts | 53° |
| 2026-04-24 22:31 | -26.92158 | -48.72015 | 1399 ft | 129 kts | 53° |
| 2026-04-24 22:31 | -26.91646 | -48.71175 | 1230 ft | 132 kts | 54° |
| 2026-04-24 22:32 | -26.91127 | -48.70325 | 1049 ft | 131 kts | 55° |
| 2026-04-24 22:32 | -26.90615 | -48.69482 | 879 ft | 130 kts | 55° |
| 2026-04-24 22:32 | -26.90103 | -48.68664 | 696 ft | 127 kts | 52° |
| 2026-04-24 22:32 | -26.89587 | -48.67868 | 520 ft | 129 kts | 56° |
| 2026-04-24 22:33 | -26.89114 | -48.67002 | 327 ft | 129 kts | 57° |
| 2026-04-24 22:33 | -26.88601 | -48.66187 | 120 ft | 126 kts | 55° |
| 2026-04-24 22:33 | -26.88127 | -48.65410 | 20 ft | 105 kts | 56° |
| 2026-04-24 22:33 | -26.87790 | -48.64856 | 21 ft | 67 kts | 56° |
| 2026-04-24 22:34 | -26.87585 | -48.64523 | 22 ft | 38 kts | 55° |
| 2026-04-24 22:34 | -26.87513 | -48.64363 | 24 ft | 12 kts | 79° |
| 2026-04-24 22:34 | -26.87481 | -48.64349 | 21 ft | 3 kts | 329° |
| 2026-04-24 22:34 | -26.87483 | -48.64367 | 21 ft | 3 kts | 237° |
| 2026-04-24 22:35 | -26.87496 | -48.64387 | 22 ft | 3 kts | 233° |
| 2026-04-24 22:35 | -26.87522 | -48.64424 | 23 ft | 9 kts | 231° |
| 2026-04-24 22:35 | -26.87574 | -48.64501 | 24 ft | 16 kts | 234° |
| 2026-04-24 22:35 | -26.87646 | -48.64616 | 26 ft | 20 kts | 236° |
| 2026-04-24 22:36 | -26.87728 | -48.64752 | 26 ft | 22 kts | 235° |
| 2026-04-24 22:36 | -26.87816 | -48.64877 | 21 ft | 15 kts | 202° |
| 2026-04-24 22:36 | -26.87910 | -48.64850 | 21 ft | 13 kts | 164° |
| 2026-04-24 22:36 | -26.87941 | -48.64856 | 20 ft | 7 kts | 238° |
| 2026-04-24 22:37 | -26.87969 | -48.64945 | 21 ft | 6 kts | 240° |
| 2026-04-24 22:37 | -26.87989 | -48.64954 | 20 ft | 2 kts | 162° |
| 2026-04-24 22:37 | -26.88004 | -48.64946 | 22 ft | 4 kts | 154° |
| 2026-04-24 22:37 | -26.88014 | -48.64940 | 20 ft | 0 kts | 150° |
| 2026-04-24 22:38 | -26.88017 | -48.64938 | 20 ft | 1 kts | 149° |
| 2026-04-24 22:38 | -26.88020 | -48.64936 | 20 ft | 0 kts | 148° |
| 2026-04-24 22:38 | -26.88022 | -48.64934 | 20 ft | 1 kts | 147° |
| 2026-04-24 22:39 | -26.88023 | -48.64934 | 20 ft | 0 kts | 147° |
| 2026-04-24 22:40 | -26.87993 | -48.64912 | 22 ft | 0 kts | 142° |